Flight Track Log - Related Links

Times and Time Zones

All times are in EDT time to prevent confusion due to time zone crossing. See the BKN25 flight status page for this flight to view local times or setup timezone preferences in your user account.

Time Position Orientation Groundspeed Altitude Reporting Facility
EDT Latitude Longitude Course Direction KTS MPH feet Rate Location/Type
Mon 11:21:38 PM 37.7875 -89.2931 320° Northwest 88 101 2,900  Level Kansas City Center
Mon 11:22:39 PM 37.8061 -89.3125 320° Northwest 87 100 3,600 537 Climbing Kansas City Center
Mon 11:23:41 PM 37.8264 -89.3353 318° Northwest 93 107 4,000 195 Climbing Kansas City Center
Mon 11:24:42 PM 37.8514 -89.3644 317° Northwest 111 128 4,000  Level Kansas City Center
Mon 11:25:43 PM 37.8775 -89.3911 321° Northwest 117 135 4,000 -49 Level Kansas City Center
Mon 11:26:44 PM 37.9078 -89.4150 328° Northwest 119 137 3,900 -49 Descending Kansas City Center
Mon 11:27:45 PM 37.9353 -89.4328 333° Northwest 121 139 3,900 49 Level Kansas City Center
Mon 11:28:46 PM 37.9636 -89.4544 329° Northwest 118 136 4,000  Climbing Kansas City Center
Mon 11:29:47 PM 37.9897 -89.4806 322° Northwest 118 136 3,900 -49 Descending Kansas City Center
Mon 11:30:48 PM 38.0181 -89.5103 320° Northwest 116 133 3,900 49 Level Kansas City Center
Mon 11:31:50 PM 38.0403 -89.5372 316° Northwest 112 129 4,000 49 Climbing Kansas City Center
Mon 11:32:51 PM 38.0639 -89.5547 330° Northwest 113 130 4,000  Level Kansas City Center
Mon 11:33:52 PM 38.0928 -89.5808 325° Northwest 111 128 4,000 -49 Level Kansas City Center
Mon 11:34:53 PM 38.1189 -89.6078 321° Northwest 113 130 3,900 -49 Descending Kansas City Center
Mon 11:35:54 PM 38.1439 -89.6319 323° Northwest 113 130 3,900 49 Level Kansas City Center
Mon 11:36:55 PM 38.1689 -89.6522 327° Northwest 109 125 4,000 98 Climbing Kansas City Center
Mon 11:37:56 PM 38.1933 -89.6739 325° Northwest 107 123 4,100 -49 Climbing Kansas City Center
Mon 11:38:57 PM 38.2194 -89.6969 325° Northwest 116 133 3,900 -49 Descending Kansas City Center
Mon 11:39:58 PM 38.2472 -89.7183 329° Northwest 117 135 4,000 49 Climbing Kansas City Center
Mon 11:40:59 PM 38.2697 -89.7461 316° Northwest 115 132 4,000  Level Kansas City Center
Mon 11:42:00 PM 38.2897 -89.7767 310° West 113 130 4,000  Level Kansas City Center
Mon 11:43:01 PM 38.3119 -89.8050 315° West 113 130 4,000  Level Kansas City Center
Mon 11:44:02 PM 38.3403 -89.8239 332° Northwest 113 130 4,000  Level Kansas City Center
Mon 11:45:03 PM 38.3753 -89.8344 347° North 120 138 4,000 49 Level Kansas City Center
Mon 11:46:04 PM 38.4125 -89.8500 342° North 120 138 4,100 -49 Climbing Kansas City Center
Mon 11:47:05 PM 38.4336 -89.8861 307° West 125 144 3,900 -443 Descending Kansas City Center
Mon 11:48:06 PM 38.4564 -89.9117 319° Northwest 115 132 3,200 -738 Descending Kansas City Center
Mon 11:49:07 PM 38.4789 -89.9406 315° West 115 132 2,400 -590 Descending Kansas City Center
Mon 11:50:08 PM 38.4922 -89.9806 293° West 121 139 2,000 -197 Descending Kansas City Center
Mon 11:51:09 PM 38.5022 -90.0161 290° West 115 132 2,000  Level Kansas City Center
Mon 11:52:10 PM 38.5178 -90.0508 300° West 113 130 2,000 -295 Level Kansas City Center
Mon 11:53:11 PM 38.5353 -90.0792 308° West 108 124 1,400 -590 Descending Kansas City Center
Mon 11:54:12 PM 38.5481 -90.1083 299° West 101 116 800 -344 Descending Kansas City Center
Mon 11:55:13 PM 38.5583 -90.1331 298° West 91 105 700 -197 Descending Kansas City Center
Mon 11:56:14 PM 38.5689 -90.1575 299° West 83 96 400 -295 Descending Kansas City Center
Mon 11:58:00 PM 38.5704 -90.1551 111° Southeast  Level Estimated

Login

Don't have an account? Register now (free) for customized features, flight alerts, and more!